Time;durP1;ratioP1;P1;durP2;ratioP2;P2;SDS_P1;SDS_P2;PMS_P1;PMS_P2;Temp;Humidity;BMP_temperature;BMP_pressure;BME280_temperature;BME280_humidity;BME280_pressure;Samples;Min_cycle;Max_cycle;Signal;HPM_P1;HPM_P2
2021/03/02 00:01:10;;;;;;;59.08;32.25;;;4.80;92.40;;;;;;5110011;28;20032;-78
2021/03/02 00:03:37;;;;;;;58.45;31.30;;;4.80;92.30;;;;;;5125915;28;20375;-78
2021/03/02 00:06:05;;;;;;;63.92;32.08;;;4.80;92.40;;;;;;5116620;28;20048;-78
2021/03/02 00:08:30;;;;;;;64.03;31.85;;;4.70;92.50;;;;;;5099170;28;20058;-78
2021/03/02 00:10:59;;;;;;;62.03;32.15;;;4.70;92.50;;;;;;5116712;28;20134;-78
2021/03/02 00:13:25;;;;;;;56.70;29.23;;;4.80;92.50;;;;;;5116862;28;20074;-78
2021/03/02 00:15:51;;;;;;;67.53;33.55;;;4.80;92.40;;;;;;5117207;28;20055;-78
2021/03/02 00:18:19;;;;;;;71.32;34.13;;;4.80;92.60;;;;;;5116630;28;20036;-78
2021/03/02 00:20:52;;;;;;;52.95;29.98;;;5.00;92.60;;;;;;5117178;28;20093;-78
2021/03/02 00:23:25;;;;;;;64.80;32.67;;;4.70;92.60;;;;;;5116796;28;20408;-78
2021/03/02 00:25:57;;;;;;;69.90;34.60;;;4.80;92.40;;;;;;5116877;28;20043;-77
2021/03/02 00:28:26;;;;;;;68.00;35.47;;;4.80;92.40;;;;;;5116722;28;20337;-78
2021/03/02 00:30:53;;;;;;;60.75;31.98;;;5.00;92.50;;;;;;5116782;28;20063;-78
2021/03/02 00:33:21;;;;;;;68.38;34.53;;;4.80;92.40;;;;;;5116522;28;20036;-78
2021/03/02 00:35:47;;;;;;;62.35;32.85;;;4.80;92.40;;;;;;5117069;28;20042;-77
2021/03/02 00:38:13;;;;;;;66.43;34.47;;;4.80;92.30;;;;;;5116692;28;20088;-79
2021/03/02 00:40:39;;;;;;;67.25;34.03;;;4.80;92.40;;;;;;5116365;28;20051;-78
2021/03/02 00:43:05;;;;;;;78.57;37.20;;;4.80;92.50;;;;;;5116573;28;20039;-77
2021/03/02 00:45:31;;;;;;;68.05;34.17;;;4.80;92.50;;;;;;5116656;28;20314;-77
2021/03/02 00:47:57;;;;;;;71.28;34.63;;;4.80;92.50;;;;;;5125618;28;20185;-77
2021/03/02 00:50:24;;;;;;;72.55;36.42;;;4.80;92.50;;;;;;5116614;28;20043;-77
2021/03/02 00:52:50;;;;;;;67.72;34.10;;;4.80;92.50;;;;;;5116692;28;20082;-76
2021/03/02 00:55:16;;;;;;;62.15;33.50;;;4.80;92.50;;;;;;5116377;28;20051;-78
2021/03/02 00:57:42;;;;;;;62.17;33.72;;;4.80;92.40;;;;;;5098752;28;20413;-77
2021/03/02 01:00:09;;;;;;;63.13;33.00;;;4.80;92.50;;;;;;5116261;28;20050;-78
2021/03/02 01:02:35;;;;;;;55.83;30.83;;;4.80;92.30;;;;;;5098270;28;20047;-78
2021/03/02 01:05:02;;;;;;;67.10;33.25;;;4.80;92.20;;;;;;5097756;28;20048;-79
2021/03/02 01:07:28;;;;;;;62.25;34.05;;;4.80;92.20;;;;;;5116556;28;20043;-78
2021/03/02 01:09:53;;;;;;;62.58;32.65;;;4.80;92.30;;;;;;5116031;28;20052;-78
2021/03/02 01:12:25;;;;;;;75.97;35.20;;;4.80;92.30;;;;;;5120267;28;20050;-78
2021/03/02 01:14:51;;;;;;;65.82;34.35;;;4.70;92.50;;;;;;5119950;28;20489;-77
2021/03/02 01:17:18;;;;;;;63.55;34.33;;;4.60;92.50;;;;;;5101957;28;20357;-77
2021/03/02 01:19:45;;;;;;;62.75;32.35;;;4.60;92.50;;;;;;5120481;28;20044;-77
2021/03/02 01:22:11;;;;;;;81.97;37.25;;;4.70;92.40;;;;;;5120561;28;20361;-77
2021/03/02 01:24:43;;;;;;;76.45;35.17;;;4.60;92.50;;;;;;5119949;28;20050;-78
2021/03/02 01:27:09;;;;;;;65.28;33.30;;;4.60;92.60;;;;;;5120281;28;20114;-78
2021/03/02 01:29:35;;;;;;;68.10;35.33;;;4.50;92.60;;;;;;5120224;28;20040;-77
2021/03/02 01:32:00;;;;;;;67.10;34.47;;;4.50;92.50;;;;;;5127426;28;20044;-78
2021/03/02 01:34:26;;;;;;;65.85;34.60;;;4.50;92.50;;;;;;5120154;28;20043;-78
2021/03/02 01:36:52;;;;;;;62.10;32.25;;;4.50;92.40;;;;;;5120019;28;20039;-77
2021/03/02 01:39:21;;;;;;;58.97;30.98;;;4.50;92.70;;;;;;5119698;28;20337;-77
2021/03/02 01:41:50;;;;;;;60.42;31.25;;;4.60;92.50;;;;;;5119845;28;20039;-78
2021/03/02 01:44:16;;;;;;;62.60;34.70;;;4.40;92.40;;;;;;5119319;28;20040;-78
2021/03/02 01:46:43;;;;;;;63.03;31.35;;;4.40;92.50;;;;;;5120214;28;20050;-76
2021/03/02 01:49:10;;;;;;;51.88;29.80;;;4.40;92.50;;;;;;5102031;28;20047;-77
2021/03/02 01:51:36;;;;;;;61.25;32.38;;;4.30;92.50;;;;;;5119889;28;20047;-78
2021/03/02 01:54:04;;;;;;;58.83;32.35;;;4.70;92.60;;;;;;5119593;28;20118;-77
2021/03/02 01:56:29;;;;;;;64.15;33.30;;;4.40;92.70;;;;;;5119591;28;20193;-78
2021/03/02 01:58:57;;;;;;;66.30;34.03;;;4.50;92.60;;;;;;5119920;28;20329;-77
2021/03/02 02:01:23;;;;;;;67.40;34.15;;;4.40;92.60;;;;;;5111922;28;20043;-77
2021/03/02 02:04:06;;;;;;;70.38;34.45;;;4.40;92.50;;;;;;5119649;28;20039;-77
2021/03/02 02:06:51;;;;;;;89.57;33.00;;;4.50;92.60;;;;;;5119324;28;20051;-77
2021/03/02 02:09:26;;;;;;;75.53;35.22;;;4.40;92.80;;;;;;5119326;28;20040;-78
2021/03/02 02:12:08;;;;;;;67.90;32.50;;;4.50;92.70;;;;;;5118608;28;20043;-78
2021/03/02 02:14:34;;;;;;;63.53;32.42;;;4.40;92.80;;;;;;5123339;28;20026;-78
2021/03/02 02:17:08;;;;;;;75.72;36.08;;;4.40;92.60;;;;;;5102608;28;20036;-78
2021/03/02 02:19:44;;;;;;;72.65;34.72;;;4.40;92.60;;;;;;5098633;28;20044;-77
2021/03/02 02:22:40;;;;;;;58.42;31.45;;;4.60;92.80;;;;;;5098256;28;20048;-77
2021/03/02 02:25:23;;;;;;;73.65;34.58;;;4.30;92.70;;;;;;5098568;28;20123;-77
2021/03/02 02:27:54;;;;;;;61.55;33.83;;;4.30;92.70;;;;;;5098105;28;20032;-77
2021/03/02 02:30:20;;;;;;;64.95;35.55;;;4.20;92.70;;;;;;5098330;28;20075;-78
2021/03/02 02:32:49;;;;;;;67.20;35.22;;;4.30;92.50;;;;;;5080830;28;20306;-78
2021/03/02 02:35:19;;;;;;;66.07;33.55;;;4.30;92.60;;;;;;5079952;28;20375;-77
2021/03/02 02:37:46;;;;;;;70.18;35.90;;;4.40;92.50;;;;;;5098499;28;20040;-78
2021/03/02 02:40:14;;;;;;;62.00;34.60;;;4.30;92.50;;;;;;5098326;28;20040;-77
2021/03/02 02:42:44;;;;;;;63.28;34.92;;;4.30;92.60;;;;;;5063184;28;20495;-77
2021/03/02 02:45:10;;;;;;;66.13;34.40;;;4.30;92.70;;;;;;5098064;28;20074;-78
2021/03/02 02:47:37;;;;;;;72.70;35.78;;;4.30;92.60;;;;;;5098274;28;20095;-78
2021/03/02 02:50:05;;;;;;;59.05;34.10;;;4.40;92.60;;;;;;5098351;28;20127;-77
2021/03/02 02:52:32;;;;;;;55.92;32.92;;;4.40;92.60;;;;;;5080416;28;20341;-78
2021/03/02 02:55:02;;;;;;;67.13;35.28;;;4.40;92.50;;;;;;5080467;28;20090;-78
2021/03/02 02:58:11;;;;;;;69.35;37.33;;;4.40;92.50;;;;;;5098124;28;20044;-78
2021/03/02 03:00:38;;;;;;;68.53;37.00;;;4.40;92.70;;;;;;5110857;28;20092;-78
2021/03/02 03:03:11;;;;;;;73.75;39.67;;;4.30;92.60;;;;;;5118556;28;20070;-78
2021/03/02 03:05:45;;;;;;;67.03;36.58;;;4.40;92.60;;;;;;5099599;28;20059;-78
2021/03/02 03:08:18;;;;;;;73.57;38.75;;;4.30;92.80;;;;;;5118221;28;20115;-78
2021/03/02 03:10:47;;;;;;;60.45;35.75;;;4.30;92.60;;;;;;5117992;28;20028;-77
2021/03/02 03:13:17;;;;;;;62.10;36.42;;;4.30;92.50;;;;;;5117762;28;20114;-76
2021/03/02 03:15:49;;;;;;;70.35;38.60;;;4.30;92.50;;;;;;5117773;28;20042;-77
2021/03/02 03:18:18;;;;;;;66.55;36.60;;;4.30;92.40;;;;;;5118271;28;20338;-78
2021/03/02 03:20:48;;;;;;;62.30;35.05;;;4.20;92.50;;;;;;5118367;28;20130;-77
2021/03/02 03:23:15;;;;;;;71.88;36.65;;;4.20;92.40;;;;;;5117884;28;20318;-78
2021/03/02 03:25:43;;;;;;;63.60;36.40;;;4.60;92.60;;;;;;5117694;28;20109;-77
2021/03/02 03:28:13;;;;;;;68.13;35.83;;;4.10;92.30;;;;;;5117995;28;20085;-77
2021/03/02 03:30:40;;;;;;;64.95;36.25;;;4.10;92.30;;;;;;5118009;28;20048;-77
2021/03/02 03:33:09;;;;;;;64.45;36.00;;;4.10;92.40;;;;;;5118126;28;20069;-77
2021/03/02 03:35:38;;;;;;;66.05;35.63;;;4.10;92.40;;;;;;5116594;28;20061;-78
2021/03/02 03:38:04;;;;;;;72.13;37.80;;;4.10;92.50;;;;;;5117670;28;20044;-77
2021/03/02 03:40:30;;;;;;;70.22;37.03;;;4.10;92.40;;;;;;5117637;28;20047;-77
2021/03/02 03:42:56;;;;;;;78.00;39.63;;;4.40;92.60;;;;;;5104554;28;20043;-76
2021/03/02 03:45:22;;;;;;;73.72;36.10;;;4.10;92.40;;;;;;5121316;28;20039;-78
2021/03/02 03:47:49;;;;;;;88.22;40.70;;;4.10;92.50;;;;;;5117614;28;20050;-77
2021/03/02 03:50:15;;;;;;;92.32;41.10;;;4.00;92.50;;;;;;5117132;28;20050;-78
2021/03/02 03:52:50;;;;;;;81.35;41.10;;;4.00;92.50;;;;;;5117132;28;20059;-78
2021/03/02 03:55:19;;;;;;;119.25;48.58;;;4.10;92.60;;;;;;5117372;28;20096;-78
2021/03/02 03:57:48;;;;;;;128.30;47.45;;;4.10;92.60;;;;;;5117071;28;20193;-77
2021/03/02 04:00:15;;;;;;;124.25;47.28;;;4.10;92.60;;;;;;5117176;28;20092;-77
2021/03/02 04:02:41;;;;;;;110.50;45.08;;;4.00;92.80;;;;;;5117265;28;20043;-78
2021/03/02 04:05:12;;;;;;;121.65;45.92;;;4.10;92.60;;;;;;5116928;28;20310;-78
2021/03/02 04:07:38;;;;;;;98.07;42.42;;;4.00;92.70;;;;;;5098122;28;20043;-77
2021/03/02 04:10:06;;;;;;;100.43;45.28;;;4.00;92.80;;;;;;5082151;28;20051;-77
2021/03/02 04:12:41;;;;;;;91.78;42.15;;;4.00;92.60;;;;;;5116902;28;20046;-77
2021/03/02 04:15:15;;;;;;;93.47;41.63;;;4.00;92.70;;;;;;5116383;28;20322;-77
2021/03/02 04:17:54;;;;;;;;;;;4.00;92.80;;;;;;5117555;28;20039;-77
2021/03/02 04:20:21;;;;;;;106.18;41.85;;;4.00;93.10;;;;;;5116793;28;19931;-77
2021/03/02 04:22:47;;;;;;;113.82;43.50;;;4.00;92.70;;;;;;5117637;28;20032;-77
2021/03/02 04:25:13;;;;;;;88.40;40.00;;;3.90;92.80;;;;;;5116820;28;20040;-78
2021/03/02 04:27:41;;;;;;;90.82;40.90;;;3.90;92.80;;;;;;5107531;28;20043;-78
2021/03/02 04:30:07;;;;;;;77.85;38.85;;;3.90;92.80;;;;;;5116664;28;20440;-78
2021/03/02 04:32:34;;;;;;;93.00;42.38;;;3.90;92.70;;;;;;5116665;28;20085;-78
2021/03/02 04:35:00;;;;;;;79.82;41.33;;;3.90;92.70;;;;;;5098591;28;20055;-78
2021/03/02 04:37:26;;;;;;;86.85;42.22;;;4.00;92.70;;;;;;5116267;28;20039;-78
2021/03/02 04:39:52;;;;;;;88.55;41.10;;;4.00;92.60;;;;;;5116467;28;20131;-77
2021/03/02 04:42:19;;;;;;;88.60;41.10;;;4.00;92.80;;;;;;5116625;28;20496;-79
2021/03/02 04:44:45;;;;;;;87.60;40.78;;;3.90;92.80;;;;;;5115813;28;20050;-78
2021/03/02 04:47:10;;;;;;;74.68;38.97;;;4.00;92.90;;;;;;5116047;28;20040;-77
2021/03/02 04:49:36;;;;;;;75.10;39.00;;;3.90;92.80;;;;;;5116159;28;20046;-79
2021/03/02 04:52:02;;;;;;;127.60;42.95;;;4.00;92.70;;;;;;5116496;28;20050;-78
2021/03/02 04:54:28;;;;;;;78.90;38.40;;;4.00;92.90;;;;;;5116646;28;20118;-78
2021/03/02 04:56:54;;;;;;;78.50;39.20;;;4.00;92.80;;;;;;5116292;28;20039;-76
2021/03/02 04:59:20;;;;;;;92.78;39.08;;;3.90;92.80;;;;;;5116134;28;20040;-77
2021/03/02 05:01:46;;;;;;;73.47;38.15;;;3.90;92.80;;;;;;5116169;28;20046;-77
2021/03/02 05:04:11;;;;;;;80.00;38.33;;;3.90;92.90;;;;;;5098237;28;20452;-77
2021/03/02 05:06:37;;;;;;;83.43;40.65;;;3.90;92.80;;;;;;5094703;28;20052;-77
2021/03/02 05:09:03;;;;;;;96.05;36.70;;;3.90;92.80;;;;;;5095863;28;20063;-77
2021/03/02 05:11:30;;;;;;;104.47;40.05;;;3.80;92.90;;;;;;5125467;28;20035;-79
2021/03/02 05:13:55;;;;;;;94.80;39.00;;;3.80;92.90;;;;;;5116551;28;20048;-78
2021/03/02 05:16:21;;;;;;;83.90;36.88;;;3.70;92.90;;;;;;5115985;28;20077;-78
2021/03/02 05:18:49;;;;;;;103.55;41.83;;;3.70;93.00;;;;;;5115295;28;20055;-78
2021/03/02 05:21:15;;;;;;;71.40;37.35;;;3.70;92.90;;;;;;5098276;28;20047;-78
2021/03/02 05:23:41;;;;;;;85.22;40.15;;;3.70;92.90;;;;;;5116389;28;20046;-78
2021/03/02 05:26:07;;;;;;;94.57;41.38;;;3.80;92.90;;;;;;5116358;28;20115;-78
2021/03/02 05:28:33;;;;;;;74.60;37.72;;;3.80;92.90;;;;;;5115851;28;20044;-78
2021/03/02 05:30:59;;;;;;;87.68;40.75;;;3.80;92.90;;;;;;5115977;28;20417;-78
2021/03/02 05:33:24;;;;;;;90.90;39.55;;;4.10;93.10;;;;;;5116239;28;20101;-78
2021/03/02 05:35:51;;;;;;;87.40;41.35;;;3.80;92.90;;;;;;5098096;28;20048;-79
2021/03/02 05:38:17;;;;;;;104.35;37.88;;;3.80;92.90;;;;;;5116061;28;20039;-79
2021/03/02 05:40:43;;;;;;;80.03;38.55;;;3.80;92.90;;;;;;5115591;28;20050;-78
2021/03/02 05:43:09;;;;;;;164.10;39.00;;;3.80;93.00;;;;;;5116191;28;20039;-78
2021/03/02 05:45:36;;;;;;;107.97;36.50;;;3.70;93.00;;;;;;5116032;28;20122;-79
2021/03/02 05:48:06;;;;;;;129.52;38.85;;;3.70;93.00;;;;;;5115622;28;20047;-76
2021/03/02 05:50:35;;;;;;;103.68;38.42;;;3.60;93.00;;;;;;5098141;28;20044;-78
2021/03/02 05:53:02;;;;;;;74.60;37.70;;;3.60;93.10;;;;;;5097759;28;20051;-77
2021/03/02 05:55:29;;;;;;;64.60;34.92;;;3.60;93.10;;;;;;5125222;28;20056;-77
2021/03/02 05:57:56;;;;;;;67.32;35.35;;;3.60;93.10;;;;;;5117272;28;20439;-78
2021/03/02 06:00:23;;;;;;;68.82;34.13;;;4.00;93.10;;;;;;5119244;28;20077;-78
2021/03/02 06:02:50;;;;;;;90.25;39.72;;;3.60;92.90;;;;;;5119533;28;20421;-78
2021/03/02 06:05:29;;;;;;;99.88;37.30;;;3.80;92.90;;;;;;5103204;28;20043;-77
2021/03/02 06:07:55;;;;;;;71.82;35.38;;;3.60;92.90;;;;;;5118766;28;20056;-77
2021/03/02 06:10:31;;;;;;;92.38;37.47;;;3.90;93.00;;;;;;5118765;28;20088;-80
2021/03/02 06:12:59;;;;;;;153.40;41.65;;;3.60;92.90;;;;;;5118608;28;20097;-78
2021/03/02 06:15:33;;;;;;;93.85;36.42;;;3.60;93.10;;;;;;5118639;28;20047;-78
2021/03/02 06:18:11;;;;;;;154.60;40.45;;;3.50;93.10;;;;;;5099932;28;20464;-78
2021/03/02 06:20:39;;;;;;;237.90;41.55;;;3.70;93.30;;;;;;5117755;28;20130;-77
2021/03/02 06:23:19;;;;;;;198.50;41.05;;;3.50;93.20;;;;;;5118020;28;20031;-78
2021/03/02 06:25:45;;;;;;;128.82;37.10;;;3.40;93.30;;;;;;5118653;28;20044;-77
2021/03/02 06:28:12;;;;;;;157.18;40.85;;;3.40;93.20;;;;;;5118531;28;20592;-77
2021/03/02 06:30:37;;;;;;;113.68;38.03;;;3.40;93.30;;;;;;5117575;28;20043;-78
2021/03/02 06:33:04;;;;;;;114.05;36.38;;;3.40;93.30;;;;;;5118508;28;20065;-78
2021/03/02 06:35:35;;;;;;;91.53;36.60;;;3.40;93.30;;;;;;5117892;28;20058;-77
2021/03/02 06:38:03;;;;;;;86.32;34.63;;;3.80;93.40;;;;;;5118265;28;20039;-77
2021/03/02 06:40:40;;;;;;;111.03;36.63;;;3.40;93.30;;;;;;5127539;28;20421;-77
2021/03/02 06:43:07;;;;;;;171.07;36.45;;;3.40;93.20;;;;;;5117624;28;20043;-78
2021/03/02 06:45:33;;;;;;;88.03;34.15;;;3.40;93.20;;;;;;5117566;28;20499;-78
2021/03/02 06:48:06;;;;;;;181.68;36.35;;;3.70;93.30;;;;;;5117892;28;20130;-78
2021/03/02 06:50:38;;;;;;;177.18;35.85;;;3.40;93.20;;;;;;5117574;28;20172;-78
2021/03/02 06:53:09;;;;;;;154.73;34.53;;;3.60;93.30;;;;;;5117804;28;20440;-78
2021/03/02 06:55:37;;;;;;;257.63;37.67;;;3.30;93.20;;;;;;5099057;28;20326;-77
2021/03/02 06:58:22;;;;;;;175.75;34.67;;;3.30;93.20;;;;;;5117483;28;20048;-77
2021/03/02 07:00:51;;;;;;;221.68;34.60;;;3.30;93.20;;;;;;5117670;28;20418;-77
2021/03/02 07:03:27;;;;;;;104.32;30.35;;;3.20;93.30;;;;;;5118153;28;20478;-77
2021/03/02 07:05:54;;;;;;;142.43;33.17;;;3.20;93.20;;;;;;5097820;28;20417;-78
2021/03/02 07:08:20;;;;;;;133.23;31.90;;;3.20;93.20;;;;;;5097332;28;20043;-79
2021/03/02 07:10:50;;;;;;;128.25;32.03;;;3.20;93.20;;;;;;5097627;28;20032;-77
2021/03/02 07:13:17;;;;;;;73.55;30.23;;;3.20;93.20;;;;;;5097587;28;20123;-79
2021/03/02 07:15:45;;;;;;;51.25;28.15;;;3.20;93.20;;;;;;5101304;28;20535;-76
2021/03/02 07:18:17;;;;;;;100.40;31.80;;;3.20;93.10;;;;;;5099922;28;20070;-78
2021/03/02 07:31:54;;;;;;;82.95;33.33;;;3.50;93.00;;;;;;5096330;28;20039;-77
2021/03/02 07:38:52;;;;;;;92.20;37.10;;;3.60;92.90;;;;;;5014874;28;20048;-76
2021/03/02 07:41:59;;;;;;;72.47;32.28;;;3.70;92.90;;;;;;4955949;29;20401;-77
2021/03/02 07:45:02;;;;;;;65.45;34.85;;;3.90;93.00;;;;;;4959949;28;20050;-77
2021/03/02 07:47:41;;;;;;;66.90;32.50;;;3.80;92.80;;;;;;4975388;28;20418;-77
2021/03/02 07:54:16;;;;;;;106.53;33.92;;;4.10;92.70;;;;;;4975451;28;20085;-77
2021/03/02 07:57:23;;;;;;;133.80;35.38;;;3.80;92.60;;;;;;4975092;28;20178;-77
2021/03/02 08:03:36;;;;;;;52.00;27.42;;;3.80;92.60;;;;;;4880435;29;20049;-78
2021/03/02 08:06:22;;;;;;;69.60;30.38;;;3.90;92.50;;;;;;4879204;29;20095;-77
2021/03/02 08:09:32;;;;;;;83.05;31.70;;;4.60;92.60;;;;;;4891138;29;20069;-78
2021/03/02 08:12:35;;;;;;;105.50;33.20;;;3.90;92.40;;;;;;4888239;29;20131;-78
2021/03/02 08:15:21;;;;;;;77.47;30.80;;;3.70;92.50;;;;;;4908894;29;20052;-78
2021/03/02 08:21:29;;;;;;;78.90;31.90;;;3.90;92.50;;;;;;4940671;28;20051;-78
2021/03/02 08:23:56;;;;;;;57.85;30.20;;;3.90;92.50;;;;;;4938358;29;20039;-78
2021/03/02 08:26:25;;;;;;;60.25;30.15;;;3.70;92.30;;;;;;4938520;29;20090;-78
2021/03/02 08:29:07;;;;;;;59.83;32.42;;;4.10;92.30;;;;;;4954851;29;20168;-78
2021/03/02 08:31:33;;;;;;;70.97;31.67;;;4.20;92.40;;;;;;4954769;29;20044;-79
2021/03/02 08:37:04;;;;;;;64.65;33.85;;;4.20;92.30;;;;;;4954051;29;20046;-78
2021/03/02 08:39:30;;;;;;;54.45;30.30;;;4.20;92.30;;;;;;4961159;28;20051;-77
2021/03/02 08:43:02;;;;;;;48.38;29.13;;;4.30;92.20;;;;;;5013505;28;20340;-77
2021/03/02 08:45:44;;;;;;;49.05;28.52;;;4.40;92.10;;;;;;4928126;29;20394;-78
2021/03/02 08:48:25;;;;;;;45.33;26.88;;;4.40;92.00;;;;;;4937738;29;20140;-78
2021/03/02 08:51:19;;;;;;;51.00;31.15;;;4.50;91.80;;;;;;4918567;29;20048;-76
2021/03/02 08:57:52;;;;;;;56.28;31.15;;;5.00;91.70;;;;;;4915981;29;20328;-77
2021/03/02 09:00:26;;;;;;;;;;;5.20;92.30;;;;;;4916005;29;20056;-78
2021/03/02 09:02:52;;;;;;;;;;;5.70;91.70;;;;;;4917037;29;19919;-79
2021/03/02 09:05:21;;;;;;;54.25;31.73;;;4.60;91.50;;;;;;4917580;29;19946;-75
2021/03/02 09:08:08;;;;;;;50.05;29.60;;;4.70;91.30;;;;;;4917110;29;20427;-77
2021/03/02 09:10:35;;;;;;;50.50;30.02;;;5.00;91.10;;;;;;4917491;29;20056;-76
2021/03/02 09:13:06;;;;;;;49.45;28.33;;;4.90;91.10;;;;;;4916407;29;20092;-76
2021/03/02 09:15:44;;;;;;;50.00;30.65;;;5.00;91.10;;;;;;4914180;28;20059;-76
2021/03/02 09:18:15;;;;;;;50.03;30.92;;;5.20;91.00;;;;;;4939047;29;20043;-77
2021/03/02 09:20:54;;;;;;;51.90;30.45;;;5.30;90.70;;;;;;4951771;29;20056;-77
2021/03/02 09:27:38;;;;;;;61.08;33.42;;;7.00;91.00;;;;;;4943560;28;20058;-78
2021/03/02 09:30:06;;;;;;;51.88;30.98;;;6.00;91.70;;;;;;4974996;28;20424;-78
2021/03/02 09:32:33;;;;;;;61.67;35.83;;;5.70;90.40;;;;;;4959893;28;20054;-78
2021/03/02 09:35:01;;;;;;;48.55;30.85;;;5.70;90.30;;;;;;5058251;28;20459;-78
2021/03/02 09:37:27;;;;;;;49.00;29.88;;;6.20;90.10;;;;;;5103743;28;20409;-79
2021/03/02 09:40:04;;;;;;;47.17;31.02;;;6.00;90.00;;;;;;5099731;28;20044;-78
2021/03/02 09:42:32;;;;;;;54.97;33.92;;;6.30;89.80;;;;;;5099258;28;20040;-79
2021/03/02 09:45:16;;;;;;;48.75;31.40;;;6.40;88.90;;;;;;5099004;28;20046;-78
2021/03/02 09:47:43;;;;;;;52.30;31.77;;;6.70;87.80;;;;;;5081664;28;20036;-78
2021/03/02 09:50:15;;;;;;;49.13;29.13;;;6.70;87.90;;;;;;5099033;28;20040;-79
2021/03/02 09:52:45;;;;;;;44.17;30.20;;;6.70;87.20;;;;;;5098678;28;20116;-78
2021/03/02 09:55:18;;;;;;;41.03;28.27;;;6.50;87.70;;;;;;5081546;28;20032;-79
2021/03/02 09:57:47;;;;;;;40.28;27.67;;;6.60;87.70;;;;;;5099283;28;20043;-78
2021/03/02 10:00:13;;;;;;;43.38;28.55;;;6.60;87.60;;;;;;5098259;28;20410;-79
2021/03/02 10:02:55;;;;;;;42.55;28.95;;;6.70;87.10;;;;;;5098680;28;20036;-78
2021/03/02 10:05:54;;;;;;;42.40;27.77;;;7.00;87.40;;;;;;5098478;28;20036;-78
2021/03/02 10:08:28;;;;;;;41.50;27.73;;;7.00;85.60;;;;;;5100816;28;20427;-79
2021/03/02 10:11:16;;;;;;;42.45;27.40;;;6.90;85.10;;;;;;5101162;28;20050;-79
2021/03/02 10:13:45;;;;;;;44.28;28.33;;;7.20;85.30;;;;;;5118225;28;20048;-79
2021/03/02 10:16:17;;;;;;;44.72;29.00;;;8.00;85.50;;;;;;5118318;28;20039;-79
2021/03/02 10:18:56;;;;;;;50.05;31.13;;;8.30;84.50;;;;;;5101138;28;20044;-78
2021/03/02 10:21:25;;;;;;;40.88;29.08;;;8.40;83.70;;;;;;5121759;28;20063;-77
2021/03/02 10:24:00;;;;;;;44.45;30.85;;;10.10;87.20;;;;;;5125972;28;20039;-79
2021/03/02 10:26:29;;;;;;;45.78;30.30;;;10.30;81.90;;;;;;5100440;28;20127;-79
2021/03/02 10:32:21;;;;;;;45.60;28.70;;;10.30;76.40;;;;;;5055577;28;20052;-78
2021/03/02 10:34:47;;;;;;;40.15;27.17;;;10.60;75.80;;;;;;5056057;28;20037;-78
2021/03/02 10:37:14;;;;;;;40.80;28.58;;;11.10;73.60;;;;;;5055813;28;20083;-78
2021/03/02 10:39:43;;;;;;;39.92;28.98;;;10.70;73.40;;;;;;5056040;28;20052;-78
2021/03/02 10:42:10;;;;;;;35.58;26.27;;;11.30;74.50;;;;;;5056031;28;20063;-78
2021/03/02 10:44:35;;;;;;;43.60;27.55;;;11.10;73.60;;;;;;5055339;28;20036;-77
2021/03/02 10:47:01;;;;;;;39.58;28.45;;;11.60;73.30;;;;;;5055414;28;20041;-78
2021/03/02 10:49:27;;;;;;;38.67;27.20;;;11.20;70.90;;;;;;5039104;28;20127;-79
2021/03/02 10:51:53;;;;;;;47.13;27.17;;;11.30;71.80;;;;;;5055960;28;20414;-79
2021/03/02 10:54:19;;;;;;;38.75;26.38;;;11.20;72.10;;;;;;5055259;28;20111;-79
2021/03/02 10:56:45;;;;;;;36.72;26.95;;;11.40;69.70;;;;;;5055457;28;20055;-79
2021/03/02 10:59:10;;;;;;;39.72;27.92;;;12.80;67.70;;;;;;5038773;28;20045;-79
2021/03/02 11:01:36;;;;;;;35.78;24.80;;;14.20;67.50;;;;;;5041925;28;20045;-79
2021/03/02 11:04:02;;;;;;;35.90;27.00;;;14.20;64.20;;;;;;5018867;28;20046;-79
2021/03/02 11:06:29;;;;;;;36.35;26.83;;;14.90;63.00;;;;;;5038002;28;20041;-78
2021/03/02 11:08:56;;;;;;;38.35;26.42;;;15.50;60.90;;;;;;5064274;28;20048;-79
2021/03/02 11:11:23;;;;;;;38.08;27.13;;;15.30;57.20;;;;;;5097226;28;20429;-79
2021/03/02 11:13:49;;;;;;;37.33;26.02;;;15.90;59.50;;;;;;5097236;28;20036;-79
2021/03/02 11:16:16;;;;;;;38.25;26.65;;;16.30;57.30;;;;;;5097018;28;20044;-79
2021/03/02 11:18:42;;;;;;;34.15;25.42;;;16.30;57.20;;;;;;5097265;28;20043;-79
2021/03/02 11:21:10;;;;;;;33.55;25.52;;;16.80;56.40;;;;;;5097593;28;20039;-79
2021/03/02 11:23:35;;;;;;;30.73;24.08;;;17.30;54.90;;;;;;5079377;28;20372;-79
2021/03/02 11:26:01;;;;;;;35.47;26.08;;;17.80;54.60;;;;;;5097570;28;20040;-79
2021/03/02 11:28:27;;;;;;;34.45;25.15;;;17.80;52.20;;;;;;5097514;28;20086;-79
2021/03/02 11:30:53;;;;;;;32.20;24.58;;;17.50;50.70;;;;;;5097199;28;20122;-79
2021/03/02 11:33:18;;;;;;;31.05;24.48;;;17.70;50.30;;;;;;5096757;28;20046;-80
2021/03/02 11:35:44;;;;;;;31.35;23.92;;;18.00;50.70;;;;;;5078685;28;20137;-79
2021/03/02 11:38:13;;;;;;;32.20;24.38;;;18.40;50.00;;;;;;5097097;28;20043;-79
2021/03/02 11:40:39;;;;;;;28.02;23.80;;;19.10;48.50;;;;;;5079274;28;20043;-79
2021/03/02 11:43:06;;;;;;;29.05;24.00;;;19.10;48.00;;;;;;5097072;28;20298;-79
2021/03/02 11:45:37;;;;;;;30.38;23.80;;;19.30;48.10;;;;;;5078928;28;20039;-79
2021/03/02 11:48:06;;;;;;;32.65;23.60;;;19.90;47.30;;;;;;5096667;28;20060;-79
2021/03/02 11:50:34;;;;;;;30.73;24.58;;;19.70;44.40;;;;;;5097009;28;20079;-79
2021/03/02 11:52:59;;;;;;;29.08;22.05;;;20.20;44.30;;;;;;5085355;28;20063;-79
2021/03/02 11:55:26;;;;;;;33.63;24.77;;;20.10;44.20;;;;;;5096476;28;20039;-79
2021/03/02 11:57:51;;;;;;;29.05;22.75;;;20.90;44.20;;;;;;5097099;28;20051;-80
2021/03/02 12:00:20;;;;;;;29.65;22.73;;;20.90;42.90;;;;;;5098801;28;20044;-80
2021/03/02 12:02:46;;;;;;;26.30;21.90;;;21.00;42.90;;;;;;5097865;28;20043;-79
2021/03/02 12:05:13;;;;;;;28.63;23.27;;;21.70;41.20;;;;;;5116780;28;20064;-78
2021/03/02 12:07:39;;;;;;;26.80;21.40;;;22.00;41.90;;;;;;5116983;28;20128;-78
2021/03/02 12:10:09;;;;;;;29.00;23.42;;;22.00;41.40;;;;;;5116969;28;20043;-77
2021/03/02 12:12:35;;;;;;;29.25;21.50;;;21.80;41.30;;;;;;5117048;28;20497;-78
2021/03/02 12:15:04;;;;;;;27.17;22.15;;;21.40;41.30;;;;;;5116698;28;20100;-79
2021/03/02 12:17:30;;;;;;;26.15;21.75;;;22.30;41.40;;;;;;5116248;28;20042;-79
2021/03/02 12:19:56;;;;;;;26.45;22.15;;;22.90;41.50;;;;;;5116730;28;20122;-79
2021/03/02 12:22:21;;;;;;;26.45;21.10;;;23.20;38.40;;;;;;5098373;28;20047;-79
2021/03/02 12:24:47;;;;;;;24.88;21.52;;;23.80;38.40;;;;;;5116714;28;20111;-78
2021/03/02 12:27:15;;;;;;;26.45;20.80;;;23.70;37.80;;;;;;5116765;28;20114;-78
2021/03/02 12:29:41;;;;;;;25.02;20.83;;;23.90;38.60;;;;;;5116744;28;20071;-78
2021/03/02 12:32:07;;;;;;;25.02;21.38;;;23.50;37.70;;;;;;5097921;28;20444;-75
2021/03/02 12:34:33;;;;;;;27.13;22.92;;;23.90;37.60;;;;;;5103149;28;20311;-75
2021/03/02 12:36:59;;;;;;;26.27;22.65;;;24.30;37.20;;;;;;5100120;28;20093;-75
2021/03/02 12:39:24;;;;;;;26.35;21.15;;;24.20;36.60;;;;;;5094036;28;20056;-75
2021/03/02 12:42:11;;;;;;;24.13;21.23;;;24.20;36.50;;;;;;5095957;28;20044;-75
2021/03/02 12:44:41;;;;;;;35.78;22.35;;;24.50;36.70;;;;;;5091969;28;20432;-75
2021/03/02 12:47:06;;;;;;;27.02;22.88;;;24.70;35.90;;;;;;5113002;28;20056;-76
2021/03/02 12:49:32;;;;;;;29.15;22.30;;;25.00;36.10;;;;;;5111303;28;20035;-76
2021/03/02 12:51:59;;;;;;;26.08;21.63;;;25.00;36.10;;;;;;5116068;28;20065;-76
2021/03/02 12:54:30;;;;;;;23.77;20.58;;;24.90;35.20;;;;;;5115988;28;20420;-76
2021/03/02 12:57:41;;;;;;;25.38;21.65;;;25.10;35.30;;;;;;5116164;28;20039;-76
2021/03/02 13:00:19;;;;;;;27.73;22.25;;;25.10;34.10;;;;;;5116717;28;20082;-76
2021/03/02 13:03:23;;;;;;;23.83;21.05;;;26.00;34.80;;;;;;5101649;28;20048;-76
2021/03/02 13:05:52;;;;;;;24.58;21.67;;;25.50;33.30;;;;;;5072921;28;20114;-78
2021/03/02 13:11:44;;;;;;;25.00;20.88;;;26.00;34.80;;;;;;5092383;28;20039;-81
2021/03/02 13:14:11;;;;;;;23.08;20.33;;;26.50;35.10;;;;;;5097369;28;20048;-78
2021/03/02 13:16:36;;;;;;;24.27;21.48;;;27.00;34.80;;;;;;5097016;28;20344;-79
2021/03/02 13:19:03;;;;;;;26.33;21.33;;;27.20;33.40;;;;;;5097606;28;20044;-78
2021/03/02 13:21:28;;;;;;;24.50;21.02;;;27.50;33.20;;;;;;5086380;28;20056;-78
2021/03/02 13:23:57;;;;;;;23.42;19.83;;;27.80;33.00;;;;;;5097569;28;20097;-78
2021/03/02 13:29:55;;;;;;;23.85;20.35;;;27.60;31.90;;;;;;5037487;28;20081;-78
2021/03/02 13:32:30;;;;;;;24.55;19.17;;;27.60;32.80;;;;;;5037053;28;20390;-77
2021/03/02 13:34:58;;;;;;;23.85;20.75;;;27.40;32.00;;;;;;5036829;28;20431;-77
2021/03/02 13:37:36;;;;;;;25.45;20.63;;;27.40;32.80;;;;;;5036910;28;20305;-77